sensor_id;sensor_type;location;lat;lon;timestamp;P1;durP1;ratioP1;P2;durP2;ratioP2
74974;SDS011;68459;50.836;19.138;2023-09-08T00:01:14;10.85;;;6.05;;
74974;SDS011;68459;50.836;19.138;2023-09-08T00:04:18;9.68;;;6.25;;
74974;SDS011;68459;50.836;19.138;2023-09-08T00:07:23;9.35;;;6.10;;
74974;SDS011;68459;50.836;19.138;2023-09-08T00:10:27;7.07;;;5.80;;
74974;SDS011;68459;50.836;19.138;2023-09-08T00:13:32;8.00;;;5.47;;
74974;SDS011;68459;50.836;19.138;2023-09-08T00:16:36;12.77;;;7.45;;
74974;SDS011;68459;50.836;19.138;2023-09-08T00:19:41;10.85;;;6.25;;
74974;SDS011;68459;50.836;19.138;2023-09-08T00:22:45;8.93;;;6.10;;
74974;SDS011;68459;50.836;19.138;2023-09-08T00:25:49;10.80;;;6.32;;
74974;SDS011;68459;50.836;19.138;2023-09-08T00:28:54;9.45;;;5.88;;
74974;SDS011;68459;50.836;19.138;2023-09-08T00:31:58;11.05;;;6.50;;
74974;SDS011;68459;50.836;19.138;2023-09-08T00:35:02;8.30;;;6.15;;
74974;SDS011;68459;50.836;19.138;2023-09-08T00:38:10;10.10;;;6.28;;
74974;SDS011;68459;50.836;19.138;2023-09-08T00:41:14;9.95;;;6.43;;
74974;SDS011;68459;50.836;19.138;2023-09-08T00:44:19;9.77;;;6.20;;
74974;SDS011;68459;50.836;19.138;2023-09-08T00:47:23;8.40;;;5.72;;
74974;SDS011;68459;50.836;19.138;2023-09-08T00:50:27;10.50;;;6.38;;
74974;SDS011;68459;50.836;19.138;2023-09-08T00:53:31;10.37;;;6.40;;
74974;SDS011;68459;50.836;19.138;2023-09-08T00:56:35;9.27;;;6.10;;
74974;SDS011;68459;50.836;19.138;2023-09-08T00:59:43;9.98;;;6.43;;
74974;SDS011;68459;50.836;19.138;2023-09-08T01:02:47;11.68;;;6.32;;
74974;SDS011;68459;50.836;19.138;2023-09-08T01:05:51;10.80;;;6.55;;
74974;SDS011;68459;50.836;19.138;2023-09-08T01:08:56;15.02;;;6.78;;
74974;SDS011;68459;50.836;19.138;2023-09-08T01:12:00;9.60;;;6.75;;
74974;SDS011;68459;50.836;19.138;2023-09-08T01:15:09;12.73;;;7.00;;
74974;SDS011;68459;50.836;19.138;2023-09-08T01:18:14;10.73;;;6.70;;
74974;SDS011;68459;50.836;19.138;2023-09-08T01:25:24;10.03;;;6.57;;
74974;SDS011;68459;50.836;19.138;2023-09-08T01:28:29;10.10;;;7.07;;
74974;SDS011;68459;50.836;19.138;2023-09-08T01:31:35;9.65;;;6.40;;
74974;SDS011;68459;50.836;19.138;2023-09-08T01:34:40;11.13;;;7.20;;
74974;SDS011;68459;50.836;19.138;2023-09-08T01:37:44;11.93;;;6.30;;
74974;SDS011;68459;50.836;19.138;2023-09-08T01:40:52;9.52;;;6.85;;
74974;SDS011;68459;50.836;19.138;2023-09-08T01:43:55;13.63;;;7.32;;
74974;SDS011;68459;50.836;19.138;2023-09-08T01:46:59;9.73;;;7.20;;
74974;SDS011;68459;50.836;19.138;2023-09-08T01:50:04;9.90;;;7.10;;
74974;SDS011;68459;50.836;19.138;2023-09-08T01:53:08;10.32;;;7.28;;
74974;SDS011;68459;50.836;19.138;2023-09-08T01:56:13;10.93;;;6.80;;
74974;SDS011;68459;50.836;19.138;2023-09-08T01:59:17;11.88;;;7.68;;
74974;SDS011;68459;50.836;19.138;2023-09-08T02:02:21;10.35;;;6.93;;
74974;SDS011;68459;50.836;19.138;2023-09-08T02:05:25;9.93;;;7.10;;
74974;SDS011;68459;50.836;19.138;2023-09-08T02:08:29;12.35;;;7.15;;
74974;SDS011;68459;50.836;19.138;2023-09-08T02:11:35;8.77;;;7.20;;
74974;SDS011;68459;50.836;19.138;2023-09-08T02:14:39;12.90;;;6.88;;
74974;SDS011;68459;50.836;19.138;2023-09-08T02:17:43;10.43;;;7.50;;
74974;SDS011;68459;50.836;19.138;2023-09-08T02:20:47;13.05;;;7.60;;
74974;SDS011;68459;50.836;19.138;2023-09-08T02:23:51;12.70;;;7.35;;
74974;SDS011;68459;50.836;19.138;2023-09-08T02:26:56;11.77;;;7.97;;
74974;SDS011;68459;50.836;19.138;2023-09-08T02:30:00;11.90;;;7.90;;
74974;SDS011;68459;50.836;19.138;2023-09-08T02:33:04;13.73;;;7.70;;
74974;SDS011;68459;50.836;19.138;2023-09-08T02:36:10;15.15;;;8.13;;
74974;SDS011;68459;50.836;19.138;2023-09-08T02:39:14;13.02;;;7.63;;
74974;SDS011;68459;50.836;19.138;2023-09-08T02:42:20;11.65;;;7.90;;
74974;SDS011;68459;50.836;19.138;2023-09-08T02:45:24;14.50;;;7.85;;
74974;SDS011;68459;50.836;19.138;2023-09-08T02:48:27;13.50;;;7.67;;
74974;SDS011;68459;50.836;19.138;2023-09-08T02:51:32;11.68;;;8.25;;
74974;SDS011;68459;50.836;19.138;2023-09-08T02:54:35;11.63;;;7.88;;
74974;SDS011;68459;50.836;19.138;2023-09-08T02:57:41;12.93;;;7.63;;
74974;SDS011;68459;50.836;19.138;2023-09-08T03:00:45;10.50;;;7.18;;
74974;SDS011;68459;50.836;19.138;2023-09-08T03:03:49;13.70;;;7.97;;
74974;SDS011;68459;50.836;19.138;2023-09-08T03:06:55;12.15;;;7.60;;
74974;SDS011;68459;50.836;19.138;2023-09-08T03:09:58;10.93;;;7.72;;
74974;SDS011;68459;50.836;19.138;2023-09-08T03:13:04;12.93;;;8.63;;
74974;SDS011;68459;50.836;19.138;2023-09-08T03:16:08;11.38;;;7.57;;
74974;SDS011;68459;50.836;19.138;2023-09-08T03:19:12;12.73;;;7.80;;
74974;SDS011;68459;50.836;19.138;2023-09-08T03:22:16;13.90;;;8.02;;
74974;SDS011;68459;50.836;19.138;2023-09-08T03:25:21;9.95;;;7.40;;
74974;SDS011;68459;50.836;19.138;2023-09-08T03:28:26;12.17;;;8.20;;
74974;SDS011;68459;50.836;19.138;2023-09-08T03:31:30;11.40;;;7.35;;
74974;SDS011;68459;50.836;19.138;2023-09-08T03:34:34;13.98;;;7.65;;
74974;SDS011;68459;50.836;19.138;2023-09-08T03:37:43;13.25;;;7.65;;
74974;SDS011;68459;50.836;19.138;2023-09-08T03:40:47;11.65;;;8.00;;
74974;SDS011;68459;50.836;19.138;2023-09-08T03:43:52;11.18;;;7.93;;
74974;SDS011;68459;50.836;19.138;2023-09-08T03:46:56;14.82;;;8.18;;
74974;SDS011;68459;50.836;19.138;2023-09-08T03:50:05;12.80;;;7.87;;
74974;SDS011;68459;50.836;19.138;2023-09-08T03:53:10;13.07;;;8.48;;
74974;SDS011;68459;50.836;19.138;2023-09-08T03:56:14;13.95;;;8.02;;
74974;SDS011;68459;50.836;19.138;2023-09-08T03:59:19;13.77;;;7.90;;
74974;SDS011;68459;50.836;19.138;2023-09-08T04:02:24;13.05;;;7.45;;
74974;SDS011;68459;50.836;19.138;2023-09-08T04:05:28;12.35;;;7.05;;
74974;SDS011;68459;50.836;19.138;2023-09-08T04:08:33;12.15;;;8.07;;
74974;SDS011;68459;50.836;19.138;2023-09-08T04:11:36;11.85;;;7.10;;
74974;SDS011;68459;50.836;19.138;2023-09-08T04:14:42;11.60;;;7.63;;
74974;SDS011;68459;50.836;19.138;2023-09-08T04:17:46;11.45;;;7.55;;
74974;SDS011;68459;50.836;19.138;2023-09-08T04:20:49;10.10;;;6.90;;
74974;SDS011;68459;50.836;19.138;2023-09-08T04:23:53;10.27;;;7.55;;
74974;SDS011;68459;50.836;19.138;2023-09-08T04:26:57;10.65;;;7.15;;
74974;SDS011;68459;50.836;19.138;2023-09-08T04:30:02;10.70;;;6.70;;
74974;SDS011;68459;50.836;19.138;2023-09-08T04:33:08;10.57;;;7.07;;
74974;SDS011;68459;50.836;19.138;2023-09-08T04:36:11;11.13;;;7.10;;
74974;SDS011;68459;50.836;19.138;2023-09-08T04:39:16;10.50;;;6.75;;
74974;SDS011;68459;50.836;19.138;2023-09-08T04:42:19;11.55;;;6.95;;
74974;SDS011;68459;50.836;19.138;2023-09-08T04:45:25;11.10;;;6.68;;
74974;SDS011;68459;50.836;19.138;2023-09-08T04:48:29;10.93;;;7.57;;
74974;SDS011;68459;50.836;19.138;2023-09-08T04:51:33;11.20;;;7.10;;
74974;SDS011;68459;50.836;19.138;2023-09-08T04:54:39;12.95;;;7.57;;
74974;SDS011;68459;50.836;19.138;2023-09-08T04:57:43;11.85;;;7.78;;
74974;SDS011;68459;50.836;19.138;2023-09-08T05:00:49;11.57;;;6.93;;
74974;SDS011;68459;50.836;19.138;2023-09-08T05:03:53;11.23;;;7.82;;
74974;SDS011;68459;50.836;19.138;2023-09-08T05:06:58;10.85;;;6.63;;
74974;SDS011;68459;50.836;19.138;2023-09-08T05:10:02;10.32;;;6.97;;
74974;SDS011;68459;50.836;19.138;2023-09-08T05:13:09;11.07;;;7.10;;
74974;SDS011;68459;50.836;19.138;2023-09-08T05:16:32;9.75;;;7.05;;
74974;SDS011;68459;50.836;19.138;2023-09-08T05:19:52;11.10;;;7.15;;
74974;SDS011;68459;50.836;19.138;2023-09-08T05:22:56;10.77;;;7.17;;
74974;SDS011;68459;50.836;19.138;2023-09-08T05:25:59;10.38;;;7.10;;
74974;SDS011;68459;50.836;19.138;2023-09-08T05:29:04;10.45;;;7.03;;
74974;SDS011;68459;50.836;19.138;2023-09-08T05:32:09;11.57;;;7.60;;
74974;SDS011;68459;50.836;19.138;2023-09-08T05:35:14;10.60;;;7.50;;
74974;SDS011;68459;50.836;19.138;2023-09-08T05:38:18;13.23;;;7.85;;
74974;SDS011;68459;50.836;19.138;2023-09-08T05:41:22;10.15;;;7.15;;
74974;SDS011;68459;50.836;19.138;2023-09-08T05:44:26;11.90;;;7.60;;
74974;SDS011;68459;50.836;19.138;2023-09-08T05:47:32;15.23;;;7.80;;
74974;SDS011;68459;50.836;19.138;2023-09-08T05:50:37;11.98;;;7.78;;
74974;SDS011;68459;50.836;19.138;2023-09-08T05:53:42;13.33;;;7.60;;
74974;SDS011;68459;50.836;19.138;2023-09-08T05:56:46;12.20;;;7.35;;
74974;SDS011;68459;50.836;19.138;2023-09-08T05:59:50;12.38;;;7.70;;
74974;SDS011;68459;50.836;19.138;2023-09-08T06:02:55;11.40;;;7.37;;
74974;SDS011;68459;50.836;19.138;2023-09-08T06:06:01;14.75;;;7.82;;
74974;SDS011;68459;50.836;19.138;2023-09-08T06:09:05;12.60;;;7.82;;
74974;SDS011;68459;50.836;19.138;2023-09-08T06:12:11;11.13;;;7.28;;
74974;SDS011;68459;50.836;19.138;2023-09-08T06:15:15;15.02;;;7.13;;
74974;SDS011;68459;50.836;19.138;2023-09-08T06:18:21;17.55;;;7.47;;
74974;SDS011;68459;50.836;19.138;2023-09-08T06:21:25;11.90;;;6.90;;
74974;SDS011;68459;50.836;19.138;2023-09-08T06:24:29;18.00;;;7.70;;
74974;SDS011;68459;50.836;19.138;2023-09-08T06:27:32;13.65;;;7.65;;
74974;SDS011;68459;50.836;19.138;2023-09-08T06:30:37;13.80;;;7.70;;
74974;SDS011;68459;50.836;19.138;2023-09-08T06:33:45;18.17;;;8.17;;
74974;SDS011;68459;50.836;19.138;2023-09-08T06:36:50;16.50;;;7.93;;
74974;SDS011;68459;50.836;19.138;2023-09-08T06:39:54;12.38;;;7.03;;
74974;SDS011;68459;50.836;19.138;2023-09-08T06:42:58;12.85;;;7.18;;
74974;SDS011;68459;50.836;19.138;2023-09-08T06:46:18;10.85;;;6.47;;
74974;SDS011;68459;50.836;19.138;2023-09-08T06:49:24;12.15;;;7.13;;
74974;SDS011;68459;50.836;19.138;2023-09-08T06:52:28;11.10;;;7.05;;
74974;SDS011;68459;50.836;19.138;2023-09-08T06:55:32;11.73;;;6.83;;
74974;SDS011;68459;50.836;19.138;2023-09-08T06:58:37;11.75;;;7.28;;
74974;SDS011;68459;50.836;19.138;2023-09-08T07:01:40;12.50;;;6.55;;
74974;SDS011;68459;50.836;19.138;2023-09-08T07:04:46;12.30;;;6.07;;
74974;SDS011;68459;50.836;19.138;2023-09-08T07:07:51;9.82;;;6.22;;
74974;SDS011;68459;50.836;19.138;2023-09-08T07:10:54;9.95;;;6.95;;
74974;SDS011;68459;50.836;19.138;2023-09-08T07:13:59;12.18;;;6.80;;
74974;SDS011;68459;50.836;19.138;2023-09-08T07:17:03;10.05;;;6.50;;
74974;SDS011;68459;50.836;19.138;2023-09-08T07:20:09;23.90;;;16.20;;
74974;SDS011;68459;50.836;19.138;2023-09-08T07:23:14;12.82;;;7.50;;
74974;SDS011;68459;50.836;19.138;2023-09-08T07:26:19;10.70;;;6.20;;
74974;SDS011;68459;50.836;19.138;2023-09-08T07:29:23;18.85;;;10.88;;
74974;SDS011;68459;50.836;19.138;2023-09-08T07:32:27;14.55;;;9.25;;
74974;SDS011;68459;50.836;19.138;2023-09-08T07:35:32;12.27;;;9.38;;
74974;SDS011;68459;50.836;19.138;2023-09-08T07:38:40;12.87;;;6.77;;
74974;SDS011;68459;50.836;19.138;2023-09-08T07:41:44;9.73;;;6.00;;
74974;SDS011;68459;50.836;19.138;2023-09-08T07:44:49;10.40;;;6.85;;
74974;SDS011;68459;50.836;19.138;2023-09-08T07:47:53;11.15;;;6.97;;
74974;SDS011;68459;50.836;19.138;2023-09-08T07:50:58;14.57;;;5.97;;
74974;SDS011;68459;50.836;19.138;2023-09-08T07:54:03;12.05;;;6.10;;
74974;SDS011;68459;50.836;19.138;2023-09-08T07:57:08;12.55;;;7.30;;
74974;SDS011;68459;50.836;19.138;2023-09-08T08:00:12;11.37;;;6.07;;
74974;SDS011;68459;50.836;19.138;2023-09-08T08:03:17;9.40;;;5.70;;
74974;SDS011;68459;50.836;19.138;2023-09-08T08:06:22;15.02;;;6.63;;
74974;SDS011;68459;50.836;19.138;2023-09-08T08:09:26;25.75;;;12.90;;
74974;SDS011;68459;50.836;19.138;2023-09-08T08:12:30;18.40;;;8.77;;
74974;SDS011;68459;50.836;19.138;2023-09-08T08:15:34;18.15;;;10.45;;
74974;SDS011;68459;50.836;19.138;2023-09-08T08:18:39;7.97;;;5.60;;
74974;SDS011;68459;50.836;19.138;2023-09-08T08:21:44;8.88;;;5.22;;
74974;SDS011;68459;50.836;19.138;2023-09-08T08:24:48;7.73;;;4.80;;
74974;SDS011;68459;50.836;19.138;2023-09-08T08:27:52;6.63;;;4.40;;
74974;SDS011;68459;50.836;19.138;2023-09-08T08:30:56;5.97;;;4.07;;
74974;SDS011;68459;50.836;19.138;2023-09-08T08:34:00;7.22;;;4.63;;
74974;SDS011;68459;50.836;19.138;2023-09-08T08:37:05;7.32;;;5.28;;
74974;SDS011;68459;50.836;19.138;2023-09-08T08:40:09;10.57;;;6.45;;
74974;SDS011;68459;50.836;19.138;2023-09-08T08:43:14;6.38;;;4.57;;
74974;SDS011;68459;50.836;19.138;2023-09-08T08:46:19;11.25;;;4.78;;
74974;SDS011;68459;50.836;19.138;2023-09-08T08:49:24;7.47;;;4.20;;
74974;SDS011;68459;50.836;19.138;2023-09-08T08:52:32;10.18;;;4.20;;
74974;SDS011;68459;50.836;19.138;2023-09-08T08:55:36;23.13;;;13.32;;
74974;SDS011;68459;50.836;19.138;2023-09-08T08:58:40;14.40;;;8.10;;
74974;SDS011;68459;50.836;19.138;2023-09-08T09:01:45;10.38;;;4.72;;
74974;SDS011;68459;50.836;19.138;2023-09-08T09:04:49;9.17;;;4.97;;
74974;SDS011;68459;50.836;19.138;2023-09-08T09:07:55;8.15;;;4.50;;
74974;SDS011;68459;50.836;19.138;2023-09-08T09:11:05;5.65;;;3.90;;
74974;SDS011;68459;50.836;19.138;2023-09-08T09:14:09;5.55;;;3.70;;
74974;SDS011;68459;50.836;19.138;2023-09-08T09:17:13;5.67;;;4.00;;
74974;SDS011;68459;50.836;19.138;2023-09-08T09:20:17;6.35;;;3.88;;
74974;SDS011;68459;50.836;19.138;2023-09-08T09:23:28;5.88;;;4.18;;
74974;SDS011;68459;50.836;19.138;2023-09-08T09:26:33;8.30;;;4.03;;
74974;SDS011;68459;50.836;19.138;2023-09-08T09:29:44;5.78;;;4.40;;
74974;SDS011;68459;50.836;19.138;2023-09-08T09:32:50;8.37;;;4.40;;
74974;SDS011;68459;50.836;19.138;2023-09-08T09:36:03;7.28;;;3.80;;
74974;SDS011;68459;50.836;19.138;2023-09-08T09:39:09;6.30;;;4.32;;
74974;SDS011;68459;50.836;19.138;2023-09-08T09:42:13;8.10;;;4.68;;
74974;SDS011;68459;50.836;19.138;2023-09-08T09:45:17;6.10;;;3.60;;
74974;SDS011;68459;50.836;19.138;2023-09-08T09:48:22;5.80;;;3.53;;
74974;SDS011;68459;50.836;19.138;2023-09-08T09:51:26;7.03;;;4.30;;
74974;SDS011;68459;50.836;19.138;2023-09-08T09:54:32;6.93;;;4.55;;
74974;SDS011;68459;50.836;19.138;2023-09-08T09:57:35;8.48;;;4.53;;
74974;SDS011;68459;50.836;19.138;2023-09-08T10:00:41;8.02;;;4.65;;
74974;SDS011;68459;50.836;19.138;2023-09-08T10:03:50;7.40;;;4.13;;
74974;SDS011;68459;50.836;19.138;2023-09-08T10:06:57;9.27;;;5.68;;
74974;SDS011;68459;50.836;19.138;2023-09-08T10:10:03;6.40;;;4.18;;
74974;SDS011;68459;50.836;19.138;2023-09-08T10:13:08;7.40;;;3.90;;
74974;SDS011;68459;50.836;19.138;2023-09-08T10:16:15;6.85;;;4.35;;
74974;SDS011;68459;50.836;19.138;2023-09-08T10:19:23;8.20;;;4.53;;
74974;SDS011;68459;50.836;19.138;2023-09-08T10:22:28;6.40;;;3.75;;
74974;SDS011;68459;50.836;19.138;2023-09-08T10:25:37;5.93;;;4.07;;
74974;SDS011;68459;50.836;19.138;2023-09-08T10:28:47;6.78;;;4.45;;
74974;SDS011;68459;50.836;19.138;2023-09-08T10:31:53;8.18;;;4.43;;
74974;SDS011;68459;50.836;19.138;2023-09-08T10:34:59;7.03;;;4.20;;
74974;SDS011;68459;50.836;19.138;2023-09-08T10:38:23;7.35;;;4.30;;
74974;SDS011;68459;50.836;19.138;2023-09-08T10:41:30;6.25;;;4.40;;
74974;SDS011;68459;50.836;19.138;2023-09-08T10:44:34;6.55;;;4.47;;
74974;SDS011;68459;50.836;19.138;2023-09-08T10:47:41;8.07;;;4.40;;
74974;SDS011;68459;50.836;19.138;2023-09-08T10:51:00;6.73;;;4.43;;
74974;SDS011;68459;50.836;19.138;2023-09-08T10:54:08;6.88;;;4.97;;
74974;SDS011;68459;50.836;19.138;2023-09-08T10:57:15;7.82;;;4.25;;
74974;SDS011;68459;50.836;19.138;2023-09-08T11:00:21;6.35;;;4.32;;
74974;SDS011;68459;50.836;19.138;2023-09-08T11:03:26;6.35;;;4.25;;
74974;SDS011;68459;50.836;19.138;2023-09-08T11:06:32;6.93;;;3.90;;
74974;SDS011;68459;50.836;19.138;2023-09-08T11:09:35;7.28;;;4.03;;
74974;SDS011;68459;50.836;19.138;2023-09-08T11:12:40;5.63;;;4.30;;
74974;SDS011;68459;50.836;19.138;2023-09-08T11:15:44;8.93;;;4.25;;
74974;SDS011;68459;50.836;19.138;2023-09-08T11:18:50;5.93;;;3.95;;
74974;SDS011;68459;50.836;19.138;2023-09-08T11:21:55;7.17;;;4.03;;
74974;SDS011;68459;50.836;19.138;2023-09-08T11:24:59;9.90;;;5.25;;
74974;SDS011;68459;50.836;19.138;2023-09-08T11:28:08;7.53;;;4.38;;
74974;SDS011;68459;50.836;19.138;2023-09-08T11:31:11;5.55;;;4.03;;
74974;SDS011;68459;50.836;19.138;2023-09-08T11:34:16;4.95;;;3.50;;
74974;SDS011;68459;50.836;19.138;2023-09-08T11:37:20;6.33;;;4.17;;
74974;SDS011;68459;50.836;19.138;2023-09-08T11:40:23;5.32;;;3.40;;
74974;SDS011;68459;50.836;19.138;2023-09-08T11:43:28;7.45;;;3.95;;
74974;SDS011;68459;50.836;19.138;2023-09-08T11:46:35;6.38;;;3.70;;
74974;SDS011;68459;50.836;19.138;2023-09-08T11:49:39;11.05;;;4.45;;
74974;SDS011;68459;50.836;19.138;2023-09-08T11:52:44;7.37;;;4.20;;
74974;SDS011;68459;50.836;19.138;2023-09-08T11:55:49;6.03;;;3.92;;
74974;SDS011;68459;50.836;19.138;2023-09-08T11:58:54;5.85;;;4.10;;
74974;SDS011;68459;50.836;19.138;2023-09-08T12:01:59;5.85;;;3.90;;
74974;SDS011;68459;50.836;19.138;2023-09-08T12:05:04;5.85;;;3.75;;
74974;SDS011;68459;50.836;19.138;2023-09-08T12:08:08;5.27;;;4.00;;
74974;SDS011;68459;50.836;19.138;2023-09-08T12:11:12;6.63;;;3.85;;
74974;SDS011;68459;50.836;19.138;2023-09-08T12:14:17;6.93;;;3.95;;
74974;SDS011;68459;50.836;19.138;2023-09-08T12:17:21;6.68;;;3.63;;
74974;SDS011;68459;50.836;19.138;2023-09-08T12:20:27;5.63;;;3.67;;
74974;SDS011;68459;50.836;19.138;2023-09-08T12:23:31;8.70;;;4.47;;
74974;SDS011;68459;50.836;19.138;2023-09-08T12:26:35;9.17;;;5.80;;
74974;SDS011;68459;50.836;19.138;2023-09-08T12:29:41;5.47;;;3.60;;
74974;SDS011;68459;50.836;19.138;2023-09-08T12:32:45;5.60;;;3.75;;
74974;SDS011;68459;50.836;19.138;2023-09-08T12:35:50;5.93;;;3.78;;
74974;SDS011;68459;50.836;19.138;2023-09-08T12:38:55;5.67;;;3.80;;
74974;SDS011;68459;50.836;19.138;2023-09-08T12:41:59;4.70;;;3.70;;
74974;SDS011;68459;50.836;19.138;2023-09-08T12:45:04;5.97;;;3.92;;
74974;SDS011;68459;50.836;19.138;2023-09-08T12:48:10;5.80;;;3.65;;
74974;SDS011;68459;50.836;19.138;2023-09-08T12:51:13;6.43;;;3.60;;
74974;SDS011;68459;50.836;19.138;2023-09-08T12:54:17;6.90;;;3.10;;
74974;SDS011;68459;50.836;19.138;2023-09-08T12:57:21;5.20;;;3.27;;
74974;SDS011;68459;50.836;19.138;2023-09-08T13:00:26;4.45;;;3.47;;
74974;SDS011;68459;50.836;19.138;2023-09-08T13:03:31;5.40;;;3.83;;
74974;SDS011;68459;50.836;19.138;2023-09-08T13:06:34;7.38;;;3.38;;
74974;SDS011;68459;50.836;19.138;2023-09-08T13:09:38;4.50;;;3.07;;
74974;SDS011;68459;50.836;19.138;2023-09-08T13:12:42;4.37;;;3.30;;
74974;SDS011;68459;50.836;19.138;2023-09-08T13:15:47;5.55;;;3.20;;
74974;SDS011;68459;50.836;19.138;2023-09-08T13:18:52;5.85;;;2.88;;
74974;SDS011;68459;50.836;19.138;2023-09-08T13:21:56;4.78;;;2.80;;
74974;SDS011;68459;50.836;19.138;2023-09-08T13:25:00;5.30;;;3.30;;
74974;SDS011;68459;50.836;19.138;2023-09-08T13:28:04;5.87;;;3.13;;
74974;SDS011;68459;50.836;19.138;2023-09-08T13:31:10;5.35;;;3.20;;
74974;SDS011;68459;50.836;19.138;2023-09-08T13:34:13;4.45;;;2.83;;
74974;SDS011;68459;50.836;19.138;2023-09-08T13:37:17;4.00;;;2.70;;
74974;SDS011;68459;50.836;19.138;2023-09-08T13:40:21;4.73;;;2.93;;
74974;SDS011;68459;50.836;19.138;2023-09-08T13:43:25;4.17;;;3.03;;
74974;SDS011;68459;50.836;19.138;2023-09-08T13:46:30;4.03;;;2.47;;
74974;SDS011;68459;50.836;19.138;2023-09-08T13:49:34;5.63;;;2.88;;
74974;SDS011;68459;50.836;19.138;2023-09-08T13:52:39;4.88;;;3.00;;
74974;SDS011;68459;50.836;19.138;2023-09-08T13:55:45;5.20;;;3.30;;
74974;SDS011;68459;50.836;19.138;2023-09-08T13:58:52;4.80;;;2.80;;
74974;SDS011;68459;50.836;19.138;2023-09-08T14:01:59;4.95;;;3.10;;
74974;SDS011;68459;50.836;19.138;2023-09-08T14:05:25;3.70;;;3.00;;
74974;SDS011;68459;50.836;19.138;2023-09-08T14:08:37;6.78;;;3.20;;
74974;SDS011;68459;50.836;19.138;2023-09-08T14:12:00;5.07;;;3.17;;
74974;SDS011;68459;50.836;19.138;2023-09-08T14:15:07;5.73;;;3.27;;
74974;SDS011;68459;50.836;19.138;2023-09-08T14:18:13;5.40;;;3.13;;
74974;SDS011;68459;50.836;19.138;2023-09-08T14:21:17;4.85;;;2.95;;
74974;SDS011;68459;50.836;19.138;2023-09-08T14:24:20;4.05;;;2.95;;
74974;SDS011;68459;50.836;19.138;2023-09-08T14:27:24;3.93;;;3.00;;
74974;SDS011;68459;50.836;19.138;2023-09-08T14:30:28;5.47;;;3.30;;
74974;SDS011;68459;50.836;19.138;2023-09-08T14:33:33;5.85;;;3.08;;
74974;SDS011;68459;50.836;19.138;2023-09-08T14:36:37;4.63;;;3.20;;
74974;SDS011;68459;50.836;19.138;2023-09-08T14:39:41;7.63;;;3.40;;
74974;SDS011;68459;50.836;19.138;2023-09-08T14:42:44;5.33;;;3.30;;
74974;SDS011;68459;50.836;19.138;2023-09-08T14:45:48;6.43;;;3.20;;
74974;SDS011;68459;50.836;19.138;2023-09-08T14:48:53;4.72;;;3.20;;
74974;SDS011;68459;50.836;19.138;2023-09-08T14:51:57;6.00;;;3.15;;
74974;SDS011;68459;50.836;19.138;2023-09-08T14:55:01;6.55;;;3.20;;
74974;SDS011;68459;50.836;19.138;2023-09-08T14:58:05;5.60;;;3.10;;
74974;SDS011;68459;50.836;19.138;2023-09-08T15:01:09;5.20;;;2.87;;
74974;SDS011;68459;50.836;19.138;2023-09-08T15:04:17;4.45;;;3.20;;
74974;SDS011;68459;50.836;19.138;2023-09-08T15:07:21;4.60;;;3.33;;
74974;SDS011;68459;50.836;19.138;2023-09-08T15:10:25;4.88;;;3.60;;
74974;SDS011;68459;50.836;19.138;2023-09-08T15:13:29;4.57;;;3.30;;
74974;SDS011;68459;50.836;19.138;2023-09-08T15:16:32;4.60;;;3.17;;
74974;SDS011;68459;50.836;19.138;2023-09-08T15:19:38;5.68;;;3.30;;
74974;SDS011;68459;50.836;19.138;2023-09-08T15:22:42;4.18;;;3.15;;
74974;SDS011;68459;50.836;19.138;2023-09-08T15:25:52;5.03;;;3.22;;
74974;SDS011;68459;50.836;19.138;2023-09-08T15:28:58;4.60;;;3.33;;
74974;SDS011;68459;50.836;19.138;2023-09-08T15:32:01;8.13;;;3.50;;
74974;SDS011;68459;50.836;19.138;2023-09-08T15:35:09;6.28;;;3.38;;
74974;SDS011;68459;50.836;19.138;2023-09-08T15:38:13;5.93;;;3.40;;
74974;SDS011;68459;50.836;19.138;2023-09-08T15:41:17;4.57;;;3.22;;
74974;SDS011;68459;50.836;19.138;2023-09-08T15:44:22;5.37;;;3.83;;
74974;SDS011;68459;50.836;19.138;2023-09-08T15:47:26;8.97;;;3.40;;
74974;SDS011;68459;50.836;19.138;2023-09-08T15:50:31;7.97;;;3.42;;
74974;SDS011;68459;50.836;19.138;2023-09-08T15:53:35;4.68;;;2.95;;
74974;SDS011;68459;50.836;19.138;2023-09-08T15:56:39;5.53;;;3.47;;
74974;SDS011;68459;50.836;19.138;2023-09-08T15:59:45;6.40;;;3.57;;
74974;SDS011;68459;50.836;19.138;2023-09-08T16:02:48;5.70;;;3.30;;
74974;SDS011;68459;50.836;19.138;2023-09-08T16:05:54;5.80;;;3.45;;
74974;SDS011;68459;50.836;19.138;2023-09-08T16:08:58;4.75;;;3.42;;
74974;SDS011;68459;50.836;19.138;2023-09-08T16:12:01;5.38;;;3.40;;
74974;SDS011;68459;50.836;19.138;2023-09-08T16:15:07;9.20;;;3.60;;
74974;SDS011;68459;50.836;19.138;2023-09-08T16:18:12;5.83;;;3.33;;
74974;SDS011;68459;50.836;19.138;2023-09-08T16:21:17;6.88;;;3.70;;
74974;SDS011;68459;50.836;19.138;2023-09-08T16:24:20;6.43;;;3.15;;
74974;SDS011;68459;50.836;19.138;2023-09-08T16:27:24;11.25;;;3.42;;
74974;SDS011;68459;50.836;19.138;2023-09-08T16:30:28;7.37;;;3.90;;
74974;SDS011;68459;50.836;19.138;2023-09-08T16:33:32;6.13;;;3.80;;
74974;SDS011;68459;50.836;19.138;2023-09-08T16:36:39;6.15;;;3.40;;
74974;SDS011;68459;50.836;19.138;2023-09-08T16:39:44;15.00;;;10.00;;
74974;SDS011;68459;50.836;19.138;2023-09-08T16:42:47;6.88;;;3.90;;
74974;SDS011;68459;50.836;19.138;2023-09-08T16:45:51;5.60;;;3.50;;
74974;SDS011;68459;50.836;19.138;2023-09-08T16:48:55;5.47;;;3.87;;
74974;SDS011;68459;50.836;19.138;2023-09-08T16:52:00;5.65;;;4.13;;
74974;SDS011;68459;50.836;19.138;2023-09-08T16:55:04;6.95;;;4.47;;
74974;SDS011;68459;50.836;19.138;2023-09-08T16:58:13;9.23;;;3.85;;
74974;SDS011;68459;50.836;19.138;2023-09-08T17:01:17;7.70;;;4.50;;
74974;SDS011;68459;50.836;19.138;2023-09-08T17:04:20;6.80;;;4.20;;
74974;SDS011;68459;50.836;19.138;2023-09-08T17:07:26;6.20;;;4.53;;
74974;SDS011;68459;50.836;19.138;2023-09-08T17:10:30;9.07;;;4.72;;
74974;SDS011;68459;50.836;19.138;2023-09-08T17:13:33;9.20;;;4.60;;
74974;SDS011;68459;50.836;19.138;2023-09-08T17:16:38;7.03;;;4.77;;
74974;SDS011;68459;50.836;19.138;2023-09-08T17:19:42;8.02;;;4.78;;
74974;SDS011;68459;50.836;19.138;2023-09-08T17:22:47;8.55;;;4.57;;
74974;SDS011;68459;50.836;19.138;2023-09-08T17:25:51;7.55;;;5.00;;
74974;SDS011;68459;50.836;19.138;2023-09-08T17:28:55;7.30;;;4.70;;
74974;SDS011;68459;50.836;19.138;2023-09-08T17:31:58;7.47;;;4.53;;
74974;SDS011;68459;50.836;19.138;2023-09-08T17:35:02;5.82;;;4.43;;
74974;SDS011;68459;50.836;19.138;2023-09-08T17:38:08;6.82;;;4.40;;
74974;SDS011;68459;50.836;19.138;2023-09-08T17:41:13;9.38;;;4.60;;
74974;SDS011;68459;50.836;19.138;2023-09-08T17:44:16;6.88;;;4.72;;
74974;SDS011;68459;50.836;19.138;2023-09-08T17:47:20;6.73;;;4.90;;
74974;SDS011;68459;50.836;19.138;2023-09-08T17:50:24;8.52;;;5.13;;
74974;SDS011;68459;50.836;19.138;2023-09-08T17:53:30;9.00;;;4.80;;
74974;SDS011;68459;50.836;19.138;2023-09-08T17:56:38;8.88;;;4.45;;
74974;SDS011;68459;50.836;19.138;2023-09-08T17:59:42;8.90;;;4.65;;
74974;SDS011;68459;50.836;19.138;2023-09-08T18:02:46;8.17;;;4.63;;
74974;SDS011;68459;50.836;19.138;2023-09-08T18:05:50;10.23;;;5.15;;
74974;SDS011;68459;50.836;19.138;2023-09-08T18:08:55;7.93;;;4.38;;
74974;SDS011;68459;50.836;19.138;2023-09-08T18:11:59;7.22;;;4.68;;
74974;SDS011;68459;50.836;19.138;2023-09-08T18:15:03;8.93;;;5.25;;